createdAt,value
2019-03-28T00:01:19.791Z,5.70
2019-03-28T00:03:48.011Z,5.70
2019-03-28T00:06:16.222Z,5.70
2019-03-28T00:08:44.467Z,5.70
2019-03-28T00:11:12.697Z,5.70
2019-03-28T00:13:40.907Z,5.70
2019-03-28T00:16:09.131Z,5.70
2019-03-28T00:18:37.381Z,5.60
2019-03-28T00:21:05.593Z,5.60
2019-03-28T00:23:38.390Z,5.70
2019-03-28T00:26:06.649Z,5.60
2019-03-28T00:28:34.850Z,5.60
2019-03-28T00:31:03.112Z,5.60
2019-03-28T00:33:31.393Z,5.70
2019-03-28T00:35:59.614Z,5.70
2019-03-28T00:38:27.812Z,5.70
2019-03-28T00:40:56.033Z,5.70
2019-03-28T00:43:24.265Z,5.60
2019-03-28T00:45:52.521Z,5.60
2019-03-28T00:48:20.728Z,5.60
2019-03-28T00:50:48.963Z,5.60
2019-03-28T00:53:17.187Z,5.50
2019-03-28T00:55:46.415Z,5.50
2019-03-28T00:58:14.621Z,5.50
2019-03-28T01:00:42.846Z,5.50
2019-03-28T01:03:11.227Z,5.50
2019-03-28T01:05:39.549Z,5.50
2019-03-28T01:08:07.764Z,5.50
2019-03-28T01:10:35.982Z,5.40
2019-03-28T01:13:04.188Z,5.50
2019-03-28T01:15:32.413Z,5.50
2019-03-28T01:18:00.631Z,5.70
2019-03-28T01:20:28.842Z,5.60
2019-03-28T01:22:57.057Z,5.50
2019-03-28T01:25:25.268Z,5.40
2019-03-28T01:27:53.505Z,5.50
2019-03-28T01:30:22.206Z,5.40
2019-03-28T01:32:50.605Z,5.50
2019-03-28T01:35:18.830Z,5.50
2019-03-28T01:37:47.083Z,5.40
2019-03-28T01:40:15.301Z,5.50
2019-03-28T01:42:43.517Z,5.80
2019-03-28T01:45:11.759Z,5.60
2019-03-28T01:47:39.976Z,5.50
2019-03-28T01:50:08.203Z,5.60
2019-03-28T01:52:36.398Z,5.50
2019-03-28T01:55:06.757Z,5.40
2019-03-28T01:57:34.969Z,5.50
2019-03-28T02:00:05.657Z,5.50
2019-03-28T02:02:33.900Z,5.40
2019-03-28T02:05:02.112Z,5.40
2019-03-28T02:07:30.317Z,5.40
2019-03-28T02:09:58.578Z,5.30
2019-03-28T02:12:26.786Z,5.30
2019-03-28T02:14:55.014Z,5.20
2019-03-28T02:17:23.232Z,5.20
2019-03-28T02:19:51.445Z,5.30
2019-03-28T02:22:19.669Z,5.30
2019-03-28T02:24:47.874Z,5.20
2019-03-28T02:27:23.958Z,5.20
2019-03-28T02:29:46.050Z,5.20
2019-03-28T02:32:14.274Z,5.40
2019-03-28T02:34:42.495Z,5.30
2019-03-28T02:37:10.703Z,5.20
2019-03-28T02:39:38.931Z,5.20
2019-03-28T02:42:07.183Z,5.20
2019-03-28T02:44:35.419Z,5.10
2019-03-28T02:47:03.631Z,5.10
2019-03-28T02:49:31.842Z,5.20
2019-03-28T02:52:00.066Z,5.10
2019-03-28T02:54:28.307Z,5.10
2019-03-28T02:56:56.529Z,5.10
2019-03-28T02:59:24.767Z,5.00
2019-03-28T03:01:53.053Z,4.90
2019-03-28T03:04:21.274Z,5.00
2019-03-28T03:06:49.485Z,5.00
2019-03-28T03:09:17.709Z,5.10
2019-03-28T03:11:45.921Z,5.10
2019-03-28T03:14:14.155Z,5.10
2019-03-28T03:16:42.365Z,5.10
2019-03-28T03:19:10.585Z,5.10
2019-03-28T03:21:38.816Z,5.00
2019-03-28T03:24:07.068Z,5.00
2019-03-28T03:26:35.278Z,5.00
2019-03-28T03:29:03.586Z,5.00
2019-03-28T03:31:31.803Z,4.90
2019-03-28T03:34:00.017Z,4.90
2019-03-28T03:36:28.229Z,4.90
2019-03-28T03:38:56.458Z,4.90
2019-03-28T03:41:24.699Z,4.90
2019-03-28T03:43:52.948Z,4.90
2019-03-28T03:46:21.148Z,4.90
2019-03-28T03:48:49.365Z,4.90
2019-03-28T03:51:17.578Z,4.80
2019-03-28T03:53:45.819Z,4.80
2019-03-28T03:56:14.069Z,4.80
2019-03-28T03:58:42.275Z,4.80
2019-03-28T04:01:10.520Z,4.90
2019-03-28T04:03:38.730Z,4.80
2019-03-28T04:06:06.943Z,4.80
2019-03-28T04:08:35.166Z,4.90
2019-03-28T04:11:03.384Z,4.90
2019-03-28T04:13:31.694Z,4.90
2019-03-28T04:15:59.878Z,4.90
2019-03-28T04:18:28.090Z,4.90
2019-03-28T04:20:56.306Z,4.90
2019-03-28T04:23:24.527Z,4.90
2019-03-28T04:25:52.755Z,4.80
2019-03-28T04:28:31.523Z,4.80
2019-03-28T04:30:50.918Z,4.90
2019-03-28T04:33:19.135Z,4.90
2019-03-28T04:35:47.964Z,4.90
2019-03-28T04:38:16.983Z,4.90
2019-03-28T04:40:45.200Z,5.00
2019-03-28T04:43:13.418Z,5.00
2019-03-28T04:45:41.671Z,5.00
2019-03-28T04:48:09.927Z,4.90
2019-03-28T04:50:38.171Z,4.80
2019-03-28T04:53:06.421Z,4.80
2019-03-28T04:55:34.830Z,4.80
2019-03-28T04:58:03.034Z,4.80
2019-03-28T05:00:31.257Z,4.80
2019-03-28T05:02:59.475Z,4.80
2019-03-28T05:05:27.730Z,4.80
2019-03-28T05:07:55.932Z,4.80
2019-03-28T05:10:24.183Z,4.80
2019-03-28T05:12:52.385Z,4.70
2019-03-28T05:15:20.661Z,4.70
2019-03-28T05:17:48.910Z,4.70
2019-03-28T05:20:18.155Z,4.80
2019-03-28T05:22:46.370Z,4.70
2019-03-28T05:25:14.598Z,4.80
2019-03-28T05:27:42.826Z,4.80
2019-03-28T05:30:11.061Z,4.80
2019-03-28T05:32:39.281Z,4.80
2019-03-28T05:35:07.514Z,4.90
2019-03-28T05:37:36.405Z,5.00
2019-03-28T05:40:05.969Z,5.00
2019-03-28T05:42:34.174Z,5.00
2019-03-28T05:45:02.402Z,5.00
2019-03-28T05:47:30.620Z,5.00
2019-03-28T05:49:58.875Z,5.10
2019-03-28T05:52:27.089Z,5.10
2019-03-28T05:54:55.559Z,5.20
2019-03-28T05:57:23.778Z,5.10
2019-03-28T05:59:52.003Z,5.10
2019-03-28T06:02:21.091Z,5.10
2019-03-28T06:04:49.313Z,5.20
2019-03-28T06:07:17.532Z,5.30
2019-03-28T06:09:45.791Z,5.30
2019-03-28T06:12:14.015Z,5.30
2019-03-28T06:14:42.237Z,5.30
2019-03-28T06:17:10.466Z,5.40
2019-03-28T06:19:38.680Z,5.40
2019-03-28T06:22:06.905Z,5.50
2019-03-28T06:24:35.157Z,5.50
2019-03-28T06:27:03.364Z,5.60
2019-03-28T06:29:31.580Z,5.70
2019-03-28T06:31:59.798Z,5.70
2019-03-28T06:34:28.013Z,5.70
2019-03-28T06:36:56.234Z,5.80
2019-03-28T06:39:24.446Z,5.90
2019-03-28T06:41:52.730Z,5.90
2019-03-28T06:44:20.979Z,5.90
2019-03-28T06:46:49.232Z,6.00
2019-03-28T06:49:17.476Z,6.10
2019-03-28T06:51:45.685Z,6.10
2019-03-28T06:54:13.935Z,6.20
2019-03-28T06:56:42.236Z,6.40
2019-03-28T06:59:11.704Z,6.40
2019-03-28T07:01:39.912Z,6.50
2019-03-28T07:04:08.158Z,6.50
2019-03-28T07:06:36.409Z,6.50
2019-03-28T07:09:07.391Z,6.60
2019-03-28T07:11:35.598Z,6.60
2019-03-28T07:14:03.813Z,6.70
2019-03-28T07:16:32.074Z,6.80
2019-03-28T07:19:00.286Z,6.80
2019-03-28T07:21:28.504Z,6.90
2019-03-28T07:23:56.729Z,7.00
2019-03-28T07:26:24.942Z,7.10
2019-03-28T07:28:54.423Z,7.20
2019-03-28T07:31:22.786Z,7.20
2019-03-28T07:33:51.034Z,7.30
2019-03-28T07:36:19.254Z,7.40
2019-03-28T07:38:47.791Z,7.50
2019-03-28T07:41:16.554Z,7.60
2019-03-28T07:43:44.996Z,7.80
2019-03-28T07:46:13.217Z,7.90
2019-03-28T07:48:41.438Z,8.10
2019-03-28T07:51:09.688Z,8.30
2019-03-28T07:53:37.907Z,8.40
2019-03-28T07:56:06.130Z,8.50
2019-03-28T07:58:35.288Z,8.60
2019-03-28T08:01:03.874Z,8.60
2019-03-28T08:03:32.499Z,8.80
2019-03-28T08:06:00.701Z,9.00
2019-03-28T08:08:38.288Z,8.90
2019-03-28T08:10:58.865Z,9.00
2019-03-28T08:13:27.126Z,9.20
2019-03-28T08:15:55.359Z,9.40
2019-03-28T08:18:23.877Z,9.50
2019-03-28T08:20:52.179Z,9.70
2019-03-28T08:23:20.403Z,9.80
2019-03-28T08:25:48.623Z,10.20
2019-03-28T08:28:16.874Z,10.50
2019-03-28T08:30:45.431Z,10.70
2019-03-28T08:33:13.990Z,10.80
2019-03-28T08:35:42.198Z,10.80
2019-03-28T08:38:10.583Z,11.00
2019-03-28T08:40:43.111Z,11.10
2019-03-28T08:43:11.711Z,11.30
2019-03-28T08:45:39.933Z,11.40
2019-03-28T08:48:08.165Z,11.70
2019-03-28T08:50:36.383Z,11.90
2019-03-28T08:53:04.621Z,12.20
2019-03-28T08:55:33.230Z,12.60
2019-03-28T08:58:01.441Z,12.70
2019-03-28T09:00:35.075Z,13.00
2019-03-28T09:02:59.653Z,13.20
2019-03-28T09:05:27.943Z,13.40
2019-03-28T09:07:56.150Z,13.50
2019-03-28T09:10:24.405Z,13.70
2019-03-28T09:12:52.647Z,14.00
2019-03-28T09:15:20.857Z,14.10
2019-03-28T09:17:49.065Z,14.20
2019-03-28T09:20:17.291Z,14.30
2019-03-28T09:22:45.546Z,14.30
2019-03-28T09:25:13.799Z,14.60
2019-03-28T09:27:42.051Z,14.90
2019-03-28T09:30:10.278Z,15.20
2019-03-28T09:32:38.487Z,15.50
2019-03-28T09:35:06.972Z,15.70
2019-03-28T09:37:35.202Z,15.90
2019-03-28T09:40:03.563Z,16.10
2019-03-28T09:42:31.808Z,16.40
2019-03-28T09:45:00.038Z,16.40
2019-03-28T09:47:28.279Z,16.20
2019-03-28T09:49:56.492Z,16.40
2019-03-28T09:52:24.743Z,16.90
2019-03-28T09:54:52.988Z,17.30
2019-03-28T09:57:21.236Z,17.60
2019-03-28T09:59:49.440Z,17.90
2019-03-28T10:02:17.692Z,18.00
2019-03-28T10:04:45.901Z,18.00
2019-03-28T10:07:14.151Z,18.20
2019-03-28T10:09:42.546Z,18.20
2019-03-28T10:12:10.932Z,18.50
2019-03-28T10:14:39.155Z,18.70
2019-03-28T10:17:07.365Z,18.80
2019-03-28T10:19:35.585Z,18.50
2019-03-28T10:22:03.806Z,18.70
2019-03-28T10:24:32.031Z,19.20
2019-03-28T10:27:00.247Z,19.40
2019-03-28T10:29:28.520Z,19.80
2019-03-28T10:31:56.746Z,20.40
2019-03-28T10:34:25.049Z,19.90
2019-03-28T10:36:53.351Z,19.90
2019-03-28T10:39:21.671Z,20.20
2019-03-28T10:41:50.007Z,20.20
2019-03-28T10:44:18.249Z,20.40
2019-03-28T10:46:46.518Z,20.60
2019-03-28T10:49:15.672Z,21.20
2019-03-28T10:51:44.202Z,21.10
2019-03-28T10:54:19.818Z,20.40
2019-03-28T10:56:51.659Z,20.30
2019-03-28T10:59:22.773Z,20.60
2019-03-28T11:01:49.932Z,20.90
2019-03-28T11:04:12.409Z,20.40
2019-03-28T11:06:40.699Z,20.70
2019-03-28T11:09:08.998Z,21.10
2019-03-28T11:11:37.322Z,20.80
2019-03-28T11:14:05.583Z,20.50
2019-03-28T11:16:33.832Z,20.30
2019-03-28T11:19:02.075Z,20.40
2019-03-28T11:21:32.890Z,19.90
2019-03-28T11:24:00.621Z,20.00
2019-03-28T11:26:28.946Z,19.80
2019-03-28T11:29:00.745Z,19.90
2019-03-28T11:31:27.349Z,19.60
2019-03-28T11:33:55.631Z,19.40
2019-03-28T11:36:23.887Z,19.20
2019-03-28T11:38:52.152Z,18.50
2019-03-28T11:41:20.428Z,18.20
2019-03-28T11:43:48.728Z,18.00
2019-03-28T11:46:16.984Z,18.00
2019-03-28T11:48:45.241Z,18.30
2019-03-28T11:51:13.508Z,18.30
2019-03-28T11:53:41.793Z,18.20
2019-03-28T11:56:10.056Z,17.80
2019-03-28T11:58:38.779Z,17.90
2019-03-28T12:01:07.243Z,17.60
2019-03-28T12:03:35.535Z,17.80
2019-03-28T12:06:03.795Z,17.80
2019-03-28T12:08:32.037Z,18.10
2019-03-28T12:11:00.335Z,18.30
2019-03-28T12:13:28.632Z,18.40
2019-03-28T12:15:56.890Z,18.60
2019-03-28T12:18:25.304Z,18.60
2019-03-28T12:20:53.712Z,18.70
2019-03-28T12:23:22.435Z,18.90
2019-03-28T12:25:50.936Z,19.20
2019-03-28T12:28:19.258Z,19.10
2019-03-28T12:30:47.511Z,18.90
2019-03-28T12:33:15.809Z,18.50
2019-03-28T12:35:44.134Z,17.90
2019-03-28T12:38:12.396Z,18.00
2019-03-28T12:40:40.653Z,18.00
2019-03-28T12:43:08.914Z,18.10
2019-03-28T12:45:37.156Z,18.10
2019-03-28T12:48:05.412Z,17.40
2019-03-28T12:50:33.712Z,17.40
2019-03-28T12:53:02.035Z,17.40
2019-03-28T12:55:30.290Z,18.00
2019-03-28T12:57:58.583Z,18.20
2019-03-28T13:00:36.420Z,18.10
2019-03-28T13:03:04.717Z,18.00
2019-03-28T13:05:34.763Z,18.10
2019-03-28T13:08:02.948Z,18.10
2019-03-28T13:10:31.207Z,18.10
2019-03-28T13:12:59.498Z,18.10
2019-03-28T13:15:27.846Z,17.80
2019-03-28T13:17:56.105Z,17.20
2019-03-28T13:20:24.359Z,17.00
2019-03-28T13:22:52.629Z,17.10
2019-03-28T13:25:20.893Z,17.00
2019-03-28T13:27:49.148Z,17.10
2019-03-28T13:30:17.478Z,17.40
2019-03-28T13:32:45.729Z,17.40
2019-03-28T13:35:13.992Z,17.50
2019-03-28T13:37:42.262Z,17.70
2019-03-28T13:40:10.625Z,17.50
2019-03-28T13:42:39.139Z,17.20
2019-03-28T13:45:09.867Z,17.00
2019-03-28T13:47:38.155Z,16.80
2019-03-28T13:50:08.501Z,16.80
2019-03-28T13:52:36.793Z,16.70
2019-03-28T13:55:08.057Z,16.70
2019-03-28T13:57:36.410Z,16.70
2019-03-28T14:00:06.285Z,16.60
2019-03-28T14:02:34.847Z,16.60
2019-03-28T14:05:03.250Z,16.40
2019-03-28T14:07:31.504Z,16.20
2019-03-28T14:09:59.883Z,16.10
2019-03-28T14:12:28.143Z,15.80
2019-03-28T14:14:56.437Z,15.70
2019-03-28T14:17:24.766Z,15.20
2019-03-28T14:19:53.017Z,15.10
2019-03-28T14:22:21.264Z,15.10
2019-03-28T14:24:49.532Z,15.00
2019-03-28T14:27:17.819Z,15.10
2019-03-28T14:29:46.146Z,15.10
2019-03-28T14:32:14.398Z,15.00
2019-03-28T14:34:42.683Z,15.20
2019-03-28T14:37:11.078Z,15.30
2019-03-28T14:39:39.330Z,15.40
2019-03-28T14:42:07.572Z,15.60
2019-03-28T14:44:35.845Z,15.70
2019-03-28T14:47:04.109Z,15.60
2019-03-28T14:49:32.470Z,15.80
2019-03-28T14:52:00.743Z,15.50
2019-03-28T14:54:29.003Z,15.40
2019-03-28T14:56:57.253Z,15.20
2019-03-28T14:59:32.386Z,15.10
2019-03-28T15:01:55.493Z,15.10
2019-03-28T15:04:23.785Z,15.00
2019-03-28T15:06:52.077Z,14.80
2019-03-28T15:09:20.337Z,14.80
2019-03-28T15:11:48.630Z,15.00
2019-03-28T15:14:16.888Z,15.10
2019-03-28T15:16:45.136Z,15.00
2019-03-28T15:19:13.424Z,14.90
2019-03-28T15:21:41.690Z,14.90
2019-03-28T15:24:09.932Z,14.70
2019-03-28T15:26:38.237Z,14.60
2019-03-28T15:29:06.553Z,14.60
2019-03-28T15:31:34.822Z,14.60
2019-03-28T15:34:03.115Z,14.50
2019-03-28T15:36:31.381Z,14.40
2019-03-28T15:38:59.654Z,14.30
2019-03-28T15:41:27.997Z,14.20
2019-03-28T15:43:56.253Z,14.00
2019-03-28T15:46:25.596Z,13.90
2019-03-28T15:48:54.050Z,13.90
2019-03-28T15:51:22.307Z,13.90
2019-03-28T15:53:50.606Z,14.00
2019-03-28T15:56:18.868Z,13.90
2019-03-28T15:58:47.161Z,13.70
2019-03-28T16:01:15.454Z,13.70
2019-03-28T16:03:52.892Z,13.80
2019-03-28T16:06:13.722Z,13.80
2019-03-28T16:08:41.974Z,13.90
2019-03-28T16:11:10.233Z,13.70
2019-03-28T16:13:38.519Z,13.70
2019-03-28T16:16:06.773Z,13.70
2019-03-28T16:18:35.062Z,13.70
2019-03-28T16:21:03.313Z,13.60
2019-03-28T16:23:31.570Z,13.60
2019-03-28T16:25:59.849Z,13.70
2019-03-28T16:28:28.403Z,13.60
2019-03-28T16:30:56.842Z,13.40
2019-03-28T16:33:25.132Z,13.30
2019-03-28T16:35:53.383Z,13.30
2019-03-28T16:38:21.671Z,13.40
2019-03-28T16:40:49.966Z,13.10
2019-03-28T16:43:18.228Z,13.10
2019-03-28T16:45:46.489Z,13.10
2019-03-28T16:48:14.790Z,13.00
2019-03-28T16:50:43.038Z,12.80
2019-03-28T16:53:11.294Z,12.80
2019-03-28T16:55:39.546Z,12.80
2019-03-28T16:58:07.813Z,12.70
2019-03-28T17:00:38.816Z,12.70
2019-03-28T17:03:07.080Z,12.60
2019-03-28T17:05:35.347Z,12.60
2019-03-28T17:08:03.684Z,12.50
2019-03-28T17:10:46.425Z,12.60
2019-03-28T17:13:15.287Z,12.60
2019-03-28T17:15:43.648Z,12.40
2019-03-28T17:18:11.901Z,12.50
2019-03-28T17:20:40.699Z,12.40
2019-03-28T17:23:09.192Z,12.30
2019-03-28T17:25:37.471Z,12.30
2019-03-28T17:28:05.735Z,12.20
2019-03-28T17:30:34.034Z,12.20
2019-03-28T17:33:02.358Z,12.10
2019-03-28T17:35:30.602Z,12.10
2019-03-28T17:37:58.856Z,12.20
2019-03-28T17:40:27.119Z,12.10
2019-03-28T17:42:55.381Z,12.00
2019-03-28T17:45:23.658Z,11.90
2019-03-28T17:47:51.916Z,11.80
2019-03-28T17:50:20.255Z,11.70
2019-03-28T17:52:48.516Z,11.60
2019-03-28T17:55:19.601Z,11.60
2019-03-28T17:57:46.783Z,11.60
2019-03-28T18:00:15.025Z,11.50
2019-03-28T18:02:43.319Z,11.50
2019-03-28T18:05:15.358Z,11.40
2019-03-28T18:07:41.605Z,11.30
2019-03-28T18:10:09.883Z,11.30
2019-03-28T18:12:38.138Z,11.20
2019-03-28T18:15:06.471Z,11.10
2019-03-28T18:17:34.747Z,11.10
2019-03-28T18:20:03.509Z,11.00
2019-03-28T18:22:31.777Z,10.90
2019-03-28T18:25:00.063Z,10.90
2019-03-28T18:27:28.330Z,10.80
2019-03-28T18:29:56.614Z,10.80
2019-03-28T18:32:24.908Z,10.80
2019-03-28T18:35:04.556Z,10.80
2019-03-28T18:37:23.167Z,10.70
2019-03-28T18:39:51.420Z,10.70
2019-03-28T18:42:19.707Z,10.60
2019-03-28T18:44:47.982Z,10.60
2019-03-28T18:47:16.295Z,10.60
2019-03-28T18:49:44.637Z,10.60
2019-03-28T18:52:13.051Z,10.60
2019-03-28T18:54:41.357Z,10.50
2019-03-28T18:57:09.660Z,10.50
2019-03-28T18:59:38.020Z,10.50
2019-03-28T19:02:06.285Z,10.50
2019-03-28T19:04:34.557Z,10.40
2019-03-28T19:07:02.823Z,10.40
2019-03-28T19:09:31.212Z,10.50
2019-03-28T19:11:59.433Z,10.50
2019-03-28T19:14:27.697Z,10.50
2019-03-28T19:16:55.958Z,10.40
2019-03-28T19:19:38.385Z,10.40
2019-03-28T19:21:55.810Z,10.40
2019-03-28T19:24:24.218Z,10.40
2019-03-28T19:26:52.946Z,10.30
2019-03-28T19:29:21.443Z,10.30
2019-03-28T19:31:50.013Z,10.20
2019-03-28T19:34:18.361Z,10.10
2019-03-28T19:36:46.845Z,10.10
2019-03-28T19:39:25.142Z,10.10
2019-03-28T19:41:53.457Z,10.10
2019-03-28T19:44:21.720Z,10.10
2019-03-28T19:46:49.982Z,10.10
2019-03-28T19:49:18.260Z,10.10
2019-03-28T19:51:47.796Z,10.10
2019-03-28T19:54:16.315Z,10.10
2019-03-28T19:56:44.627Z,10.00
2019-03-28T19:59:12.987Z,10.00
2019-03-28T20:01:41.240Z,9.90
2019-03-28T20:04:09.569Z,9.90
2019-03-28T20:06:37.815Z,9.90
2019-03-28T20:09:16.045Z,10.00
2019-03-28T20:11:37.513Z,9.90
2019-03-28T20:14:05.765Z,9.90
2019-03-28T20:16:34.012Z,9.90
2019-03-28T20:19:02.527Z,9.80
2019-03-28T20:21:30.924Z,9.80
2019-03-28T20:23:59.255Z,9.70
2019-03-28T20:26:27.529Z,9.80
2019-03-28T20:28:56.446Z,9.70
2019-03-28T20:31:24.747Z,9.70
2019-03-28T20:33:53.057Z,9.80
2019-03-28T20:36:36.914Z,9.80
2019-03-28T20:39:03.336Z,9.80
2019-03-28T20:41:21.346Z,9.80
2019-03-28T20:43:49.635Z,9.80
2019-03-28T20:46:20.577Z,9.70
2019-03-28T20:48:47.906Z,9.70
2019-03-28T20:51:16.191Z,9.70
2019-03-28T20:53:44.435Z,9.80
2019-03-28T20:56:12.689Z,9.60
2019-03-28T20:58:40.955Z,9.60
2019-03-28T21:01:09.219Z,9.50
2019-03-28T21:03:37.477Z,9.50
2019-03-28T21:06:15.148Z,9.50
2019-03-28T21:08:35.752Z,9.50
2019-03-28T21:11:04.095Z,9.50
2019-03-28T21:13:32.611Z,9.50
2019-03-28T21:16:00.871Z,9.50
2019-03-28T21:18:29.146Z,9.50
2019-03-28T21:20:57.396Z,9.50
2019-03-28T21:23:25.652Z,9.50
2019-03-28T21:25:53.852Z,9.40
2019-03-28T21:28:22.163Z,9.40
2019-03-28T21:30:50.385Z,9.40
2019-03-28T21:33:18.645Z,9.40
2019-03-28T21:35:46.871Z,9.30
2019-03-28T21:38:17.007Z,9.30
2019-03-28T21:40:45.450Z,9.40
2019-03-28T21:43:30.934Z,9.30
2019-03-28T21:45:59.021Z,9.40
2019-03-28T21:48:27.234Z,9.40
2019-03-28T21:50:55.450Z,9.30
2019-03-28T21:53:23.660Z,9.30
2019-03-28T21:55:55.335Z,9.30
2019-03-28T21:58:21.814Z,9.30
2019-03-28T22:00:50.041Z,9.20
2019-03-28T22:03:18.260Z,9.30
2019-03-28T22:05:46.515Z,9.20
2019-03-28T22:08:14.715Z,9.30
2019-03-28T22:10:43.083Z,9.20
2019-03-28T22:13:12.311Z,9.20
2019-03-28T22:15:40.817Z,9.20
2019-03-28T22:18:09.065Z,9.20
2019-03-28T22:20:37.290Z,9.20
2019-03-28T22:23:05.524Z,9.30
2019-03-28T22:25:33.726Z,9.20
2019-03-28T22:28:01.989Z,9.30
2019-03-28T22:30:30.203Z,9.20
2019-03-28T22:32:58.429Z,9.20
2019-03-28T22:35:26.671Z,9.10
2019-03-28T22:37:54.991Z,9.10
2019-03-28T22:40:23.226Z,9.10
2019-03-28T22:42:51.430Z,9.10
2019-03-28T22:45:19.676Z,9.10
2019-03-28T22:47:47.890Z,9.00
2019-03-28T22:50:16.204Z,9.00
2019-03-28T22:52:44.452Z,9.00
2019-03-28T22:55:12.664Z,9.00
2019-03-28T22:57:41.200Z,8.90
2019-03-28T23:00:11.627Z,8.90
2019-03-28T23:02:39.945Z,8.90
2019-03-28T23:05:09.220Z,8.90
2019-03-28T23:07:37.454Z,8.90
2019-03-28T23:10:07.610Z,9.00
2019-03-28T23:12:35.840Z,8.90
2019-03-28T23:15:08.192Z,8.90
2019-03-28T23:17:36.463Z,8.90
2019-03-28T23:20:07.431Z,9.00
2019-03-28T23:22:35.696Z,8.80
2019-03-28T23:25:04.951Z,8.80
2019-03-28T23:27:33.219Z,8.80
2019-03-28T23:30:02.886Z,8.80
2019-03-28T23:32:31.294Z,8.80
2019-03-28T23:34:59.539Z,8.80
2019-03-28T23:37:27.760Z,8.80
2019-03-28T23:39:55.996Z,8.80
2019-03-28T23:42:24.213Z,8.70
2019-03-28T23:44:53.171Z,8.70
2019-03-28T23:47:22.072Z,8.70
2019-03-28T23:49:50.283Z,8.70
2019-03-28T23:52:18.498Z,8.80
2019-03-28T23:54:47.719Z,8.70
2019-03-28T23:57:15.935Z,8.70
2019-03-28T23:59:44.151Z,8.70
